sensor_id;sensor_type;location;lat;lon;timestamp;temperature;humidity
9414;DHT22;4746;35.664;139.738;2023-05-29T00:02:01;23.70;99.90
9414;DHT22;4746;35.664;139.738;2023-05-29T00:04:29;23.80;99.90
9414;DHT22;4746;35.664;139.738;2023-05-29T00:06:56;23.90;99.90
9414;DHT22;4746;35.664;139.738;2023-05-29T00:09:24;23.90;99.90
9414;DHT22;4746;35.664;139.738;2023-05-29T00:11:52;23.90;99.90
9414;DHT22;4746;35.664;139.738;2023-05-29T00:14:20;23.90;99.90
9414;DHT22;4746;35.664;139.738;2023-05-29T00:16:50;23.90;99.90
9414;DHT22;4746;35.664;139.738;2023-05-29T00:19:18;23.90;99.90
9414;DHT22;4746;35.664;139.738;2023-05-29T00:21:46;24.00;99.90
9414;DHT22;4746;35.664;139.738;2023-05-29T00:24:16;23.90;99.90
9414;DHT22;4746;35.664;139.738;2023-05-29T00:26:44;23.90;99.90
9414;DHT22;4746;35.664;139.738;2023-05-29T00:29:12;23.90;99.90
9414;DHT22;4746;35.664;139.738;2023-05-29T00:31:39;23.80;99.90
9414;DHT22;4746;35.664;139.738;2023-05-29T00:34:07;23.80;99.90
9414;DHT22;4746;35.664;139.738;2023-05-29T00:36:34;23.80;99.90
9414;DHT22;4746;35.664;139.738;2023-05-29T00:39:03;23.80;99.90
9414;DHT22;4746;35.664;139.738;2023-05-29T00:41:30;23.80;99.90
9414;DHT22;4746;35.664;139.738;2023-05-29T00:43:58;23.80;99.90
9414;DHT22;4746;35.664;139.738;2023-05-29T00:46:25;23.80;99.90
9414;DHT22;4746;35.664;139.738;2023-05-29T00:48:53;23.90;99.90
9414;DHT22;4746;35.664;139.738;2023-05-29T00:51:22;23.90;99.90
9414;DHT22;4746;35.664;139.738;2023-05-29T00:53:51;24.00;99.90
9414;DHT22;4746;35.664;139.738;2023-05-29T00:56:20;24.00;99.90
9414;DHT22;4746;35.664;139.738;2023-05-29T00:58:50;24.00;99.90
9414;DHT22;4746;35.664;139.738;2023-05-29T01:01:19;24.10;99.90
9414;DHT22;4746;35.664;139.738;2023-05-29T01:03:48;24.10;99.90
9414;DHT22;4746;35.664;139.738;2023-05-29T01:06:16;24.10;99.90
9414;DHT22;4746;35.664;139.738;2023-05-29T01:08:43;24.10;99.90
9414;DHT22;4746;35.664;139.738;2023-05-29T01:11:31;24.10;99.90
9414;DHT22;4746;35.664;139.738;2023-05-29T01:14:07;24.10;99.90
9414;DHT22;4746;35.664;139.738;2023-05-29T01:16:55;24.10;99.90
9414;DHT22;4746;35.664;139.738;2023-05-29T01:19:39;24.10;99.90
9414;DHT22;4746;35.664;139.738;2023-05-29T01:22:32;24.10;99.90
9414;DHT22;4746;35.664;139.738;2023-05-29T01:25:19;24.10;99.90
9414;DHT22;4746;35.664;139.738;2023-05-29T01:27:56;24.00;99.90
9414;DHT22;4746;35.664;139.738;2023-05-29T01:30:29;24.00;99.90
9414;DHT22;4746;35.664;139.738;2023-05-29T01:33:00;23.90;99.90
9414;DHT22;4746;35.664;139.738;2023-05-29T01:35:28;23.90;99.90
9414;DHT22;4746;35.664;139.738;2023-05-29T01:37:56;23.80;99.90
9414;DHT22;4746;35.664;139.738;2023-05-29T01:40:23;23.80;99.90
9414;DHT22;4746;35.664;139.738;2023-05-29T01:42:51;23.80;99.90
9414;DHT22;4746;35.664;139.738;2023-05-29T01:45:19;23.80;99.90
9414;DHT22;4746;35.664;139.738;2023-05-29T01:47:47;23.80;99.90
9414;DHT22;4746;35.664;139.738;2023-05-29T01:50:18;23.80;99.90
9414;DHT22;4746;35.664;139.738;2023-05-29T01:52:47;23.80;99.90
9414;DHT22;4746;35.664;139.738;2023-05-29T01:55:14;23.70;99.90
9414;DHT22;4746;35.664;139.738;2023-05-29T01:57:42;23.70;99.90
9414;DHT22;4746;35.664;139.738;2023-05-29T02:00:10;23.70;99.90
9414;DHT22;4746;35.664;139.738;2023-05-29T02:02:39;23.60;99.90
9414;DHT22;4746;35.664;139.738;2023-05-29T02:05:08;23.60;99.90
9414;DHT22;4746;35.664;139.738;2023-05-29T02:07:36;23.50;99.90
9414;DHT22;4746;35.664;139.738;2023-05-29T02:10:05;23.40;99.90
9414;DHT22;4746;35.664;139.738;2023-05-29T02:12:32;23.40;99.90
9414;DHT22;4746;35.664;139.738;2023-05-29T02:15:00;23.30;99.90
9414;DHT22;4746;35.664;139.738;2023-05-29T02:17:27;23.30;99.90
9414;DHT22;4746;35.664;139.738;2023-05-29T02:19:55;23.30;99.90
9414;DHT22;4746;35.664;139.738;2023-05-29T02:22:22;23.30;99.90
9414;DHT22;4746;35.664;139.738;2023-05-29T02:24:50;23.30;99.90
9414;DHT22;4746;35.664;139.738;2023-05-29T02:27:17;23.30;99.90
9414;DHT22;4746;35.664;139.738;2023-05-29T02:29:45;23.20;99.90
9414;DHT22;4746;35.664;139.738;2023-05-29T02:32:12;23.20;99.90
9414;DHT22;4746;35.664;139.738;2023-05-29T02:34:40;23.20;99.90
9414;DHT22;4746;35.664;139.738;2023-05-29T02:37:08;23.10;99.90
9414;DHT22;4746;35.664;139.738;2023-05-29T02:39:35;23.10;99.90
9414;DHT22;4746;35.664;139.738;2023-05-29T02:42:03;23.10;99.90
9414;DHT22;4746;35.664;139.738;2023-05-29T02:44:32;23.10;99.90
9414;DHT22;4746;35.664;139.738;2023-05-29T02:46:59;23.00;99.90
9414;DHT22;4746;35.664;139.738;2023-05-29T02:49:26;23.00;99.90
9414;DHT22;4746;35.664;139.738;2023-05-29T02:51:54;23.00;99.90
9414;DHT22;4746;35.664;139.738;2023-05-29T02:54:25;23.00;99.90
9414;DHT22;4746;35.664;139.738;2023-05-29T02:56:53;23.00;99.90
9414;DHT22;4746;35.664;139.738;2023-05-29T02:59:20;23.10;99.90
9414;DHT22;4746;35.664;139.738;2023-05-29T03:01:48;23.00;99.90
9414;DHT22;4746;35.664;139.738;2023-05-29T03:04:16;23.00;99.90
9414;DHT22;4746;35.664;139.738;2023-05-29T03:06:43;23.00;99.90
9414;DHT22;4746;35.664;139.738;2023-05-29T03:09:11;23.00;99.90
9414;DHT22;4746;35.664;139.738;2023-05-29T03:11:40;23.00;99.90
9414;DHT22;4746;35.664;139.738;2023-05-29T03:14:07;23.00;99.90
9414;DHT22;4746;35.664;139.738;2023-05-29T03:16:35;23.00;99.90
9414;DHT22;4746;35.664;139.738;2023-05-29T03:19:04;23.00;99.90
9414;DHT22;4746;35.664;139.738;2023-05-29T03:21:32;22.90;99.90
9414;DHT22;4746;35.664;139.738;2023-05-29T03:24:00;22.90;99.90
9414;DHT22;4746;35.664;139.738;2023-05-29T03:26:29;22.90;99.90
9414;DHT22;4746;35.664;139.738;2023-05-29T03:28:56;22.90;99.90
9414;DHT22;4746;35.664;139.738;2023-05-29T03:31:24;22.80;99.90
9414;DHT22;4746;35.664;139.738;2023-05-29T03:33:51;22.80;99.90
9414;DHT22;4746;35.664;139.738;2023-05-29T03:36:19;22.80;99.90
9414;DHT22;4746;35.664;139.738;2023-05-29T03:38:47;22.80;99.90
9414;DHT22;4746;35.664;139.738;2023-05-29T03:41:14;22.70;99.90
9414;DHT22;4746;35.664;139.738;2023-05-29T03:43:42;22.60;99.90
9414;DHT22;4746;35.664;139.738;2023-05-29T03:46:09;22.60;99.90
9414;DHT22;4746;35.664;139.738;2023-05-29T03:48:37;22.60;99.90
9414;DHT22;4746;35.664;139.738;2023-05-29T03:51:04;22.50;99.90
9414;DHT22;4746;35.664;139.738;2023-05-29T03:53:32;22.50;99.90
9414;DHT22;4746;35.664;139.738;2023-05-29T03:56:00;22.50;99.90
9414;DHT22;4746;35.664;139.738;2023-05-29T03:58:28;22.50;99.90
9414;DHT22;4746;35.664;139.738;2023-05-29T04:00:55;22.50;99.90
9414;DHT22;4746;35.664;139.738;2023-05-29T04:03:23;22.50;99.90
9414;DHT22;4746;35.664;139.738;2023-05-29T04:05:50;22.40;99.90
9414;DHT22;4746;35.664;139.738;2023-05-29T04:08:18;22.40;99.90
9414;DHT22;4746;35.664;139.738;2023-05-29T04:10:45;22.40;99.90
9414;DHT22;4746;35.664;139.738;2023-05-29T04:13:13;22.40;99.90
9414;DHT22;4746;35.664;139.738;2023-05-29T04:15:40;22.40;99.90
9414;DHT22;4746;35.664;139.738;2023-05-29T04:18:08;22.50;99.90
9414;DHT22;4746;35.664;139.738;2023-05-29T04:20:36;22.40;99.90
9414;DHT22;4746;35.664;139.738;2023-05-29T04:23:03;22.50;99.90
9414;DHT22;4746;35.664;139.738;2023-05-29T04:25:31;22.70;99.90
9414;DHT22;4746;35.664;139.738;2023-05-29T04:27:58;22.80;99.90
9414;DHT22;4746;35.664;139.738;2023-05-29T04:30:28;22.90;99.90
9414;DHT22;4746;35.664;139.738;2023-05-29T04:32:56;22.90;99.90
9414;DHT22;4746;35.664;139.738;2023-05-29T04:35:24;23.00;99.90
9414;DHT22;4746;35.664;139.738;2023-05-29T04:37:55;23.00;99.90
9414;DHT22;4746;35.664;139.738;2023-05-29T04:40:22;23.00;99.90
9414;DHT22;4746;35.664;139.738;2023-05-29T04:42:50;23.10;99.90
9414;DHT22;4746;35.664;139.738;2023-05-29T04:45:20;23.10;99.90
9414;DHT22;4746;35.664;139.738;2023-05-29T04:47:48;23.10;99.90
9414;DHT22;4746;35.664;139.738;2023-05-29T04:50:17;23.20;99.90
9414;DHT22;4746;35.664;139.738;2023-05-29T04:52:45;23.30;99.90
9414;DHT22;4746;35.664;139.738;2023-05-29T04:55:13;23.30;99.90
9414;DHT22;4746;35.664;139.738;2023-05-29T04:57:40;23.30;99.90
9414;DHT22;4746;35.664;139.738;2023-05-29T05:00:08;23.40;99.90
9414;DHT22;4746;35.664;139.738;2023-05-29T05:02:43;23.40;99.90
9414;DHT22;4746;35.664;139.738;2023-05-29T05:05:11;23.30;99.90
9414;DHT22;4746;35.664;139.738;2023-05-29T05:07:39;23.30;99.90
9414;DHT22;4746;35.664;139.738;2023-05-29T05:10:07;23.30;99.90
9414;DHT22;4746;35.664;139.738;2023-05-29T05:12:35;23.20;99.90
9414;DHT22;4746;35.664;139.738;2023-05-29T05:15:04;23.20;99.90
9414;DHT22;4746;35.664;139.738;2023-05-29T05:17:32;23.20;99.90
9414;DHT22;4746;35.664;139.738;2023-05-29T05:19:59;23.20;99.90
9414;DHT22;4746;35.664;139.738;2023-05-29T05:22:27;23.30;99.90
9414;DHT22;4746;35.664;139.738;2023-05-29T05:24:54;23.30;99.90
9414;DHT22;4746;35.664;139.738;2023-05-29T05:27:22;23.20;99.90
9414;DHT22;4746;35.664;139.738;2023-05-29T05:29:50;23.10;99.90
9414;DHT22;4746;35.664;139.738;2023-05-29T05:32:17;23.20;99.90
9414;DHT22;4746;35.664;139.738;2023-05-29T05:34:45;23.20;99.90
9414;DHT22;4746;35.664;139.738;2023-05-29T05:37:12;23.20;99.90
9414;DHT22;4746;35.664;139.738;2023-05-29T05:39:40;23.20;99.90
9414;DHT22;4746;35.664;139.738;2023-05-29T05:42:08;23.30;99.90
9414;DHT22;4746;35.664;139.738;2023-05-29T05:44:36;23.30;99.90
9414;DHT22;4746;35.664;139.738;2023-05-29T05:47:03;23.40;99.90
9414;DHT22;4746;35.664;139.738;2023-05-29T05:49:31;23.50;99.90
9414;DHT22;4746;35.664;139.738;2023-05-29T05:51:58;23.40;99.90
9414;DHT22;4746;35.664;139.738;2023-05-29T05:54:27;23.40;99.90
9414;DHT22;4746;35.664;139.738;2023-05-29T05:56:54;23.40;99.90
9414;DHT22;4746;35.664;139.738;2023-05-29T05:59:22;23.40;99.90
9414;DHT22;4746;35.664;139.738;2023-05-29T06:01:49;23.50;99.90
9414;DHT22;4746;35.664;139.738;2023-05-29T06:04:18;23.60;99.90
9414;DHT22;4746;35.664;139.738;2023-05-29T06:06:45;23.60;99.90
9414;DHT22;4746;35.664;139.738;2023-05-29T06:09:13;23.70;99.90
9414;DHT22;4746;35.664;139.738;2023-05-29T06:11:40;23.60;99.90
9414;DHT22;4746;35.664;139.738;2023-05-29T06:14:08;23.50;99.90
9414;DHT22;4746;35.664;139.738;2023-05-29T06:16:35;23.50;99.90
9414;DHT22;4746;35.664;139.738;2023-05-29T06:19:03;23.40;99.90
9414;DHT22;4746;35.664;139.738;2023-05-29T06:21:32;23.30;99.90
9414;DHT22;4746;35.664;139.738;2023-05-29T06:24:00;23.40;99.90
9414;DHT22;4746;35.664;139.738;2023-05-29T06:26:27;23.40;99.90
9414;DHT22;4746;35.664;139.738;2023-05-29T06:28:55;23.40;99.90
9414;DHT22;4746;35.664;139.738;2023-05-29T06:31:22;23.40;99.90
9414;DHT22;4746;35.664;139.738;2023-05-29T06:33:50;23.40;99.90
9414;DHT22;4746;35.664;139.738;2023-05-29T06:36:18;23.40;99.90
9414;DHT22;4746;35.664;139.738;2023-05-29T06:38:49;23.40;99.90
9414;DHT22;4746;35.664;139.738;2023-05-29T06:41:17;23.30;99.90
9414;DHT22;4746;35.664;139.738;2023-05-29T06:43:45;23.30;99.90
9414;DHT22;4746;35.664;139.738;2023-05-29T06:46:14;23.30;99.90
9414;DHT22;4746;35.664;139.738;2023-05-29T06:48:44;23.30;99.90
9414;DHT22;4746;35.664;139.738;2023-05-29T06:51:12;23.20;99.90
9414;DHT22;4746;35.664;139.738;2023-05-29T06:53:40;23.20;99.90
9414;DHT22;4746;35.664;139.738;2023-05-29T06:56:10;23.20;99.90
9414;DHT22;4746;35.664;139.738;2023-05-29T06:58:37;23.10;99.90
9414;DHT22;4746;35.664;139.738;2023-05-29T07:01:06;23.10;99.90
9414;DHT22;4746;35.664;139.738;2023-05-29T07:03:33;23.10;99.90
9414;DHT22;4746;35.664;139.738;2023-05-29T07:06:02;23.10;99.90
9414;DHT22;4746;35.664;139.738;2023-05-29T07:08:30;23.00;99.90
9414;DHT22;4746;35.664;139.738;2023-05-29T07:10:57;23.00;99.90
9414;DHT22;4746;35.664;139.738;2023-05-29T07:13:25;22.90;99.90
9414;DHT22;4746;35.664;139.738;2023-05-29T07:15:53;22.90;99.90
9414;DHT22;4746;35.664;139.738;2023-05-29T07:18:21;22.90;99.90
9414;DHT22;4746;35.664;139.738;2023-05-29T07:20:48;22.90;99.90
9414;DHT22;4746;35.664;139.738;2023-05-29T07:23:15;22.90;99.90
9414;DHT22;4746;35.664;139.738;2023-05-29T07:25:45;22.90;99.90
9414;DHT22;4746;35.664;139.738;2023-05-29T07:28:13;22.90;99.90
9414;DHT22;4746;35.664;139.738;2023-05-29T07:30:40;22.90;99.90
9414;DHT22;4746;35.664;139.738;2023-05-29T07:33:08;22.90;99.90
9414;DHT22;4746;35.664;139.738;2023-05-29T07:35:36;22.90;99.90
9414;DHT22;4746;35.664;139.738;2023-05-29T07:38:03;22.90;99.90
9414;DHT22;4746;35.664;139.738;2023-05-29T07:40:31;22.90;99.90
9414;DHT22;4746;35.664;139.738;2023-05-29T07:42:58;22.80;99.90
9414;DHT22;4746;35.664;139.738;2023-05-29T07:45:26;22.80;99.90
9414;DHT22;4746;35.664;139.738;2023-05-29T07:47:54;22.70;99.90
9414;DHT22;4746;35.664;139.738;2023-05-29T07:50:27;22.70;99.90
9414;DHT22;4746;35.664;139.738;2023-05-29T07:52:56;22.70;99.90
9414;DHT22;4746;35.664;139.738;2023-05-29T07:55:26;22.70;99.90
9414;DHT22;4746;35.664;139.738;2023-05-29T07:57:54;22.70;99.90
9414;DHT22;4746;35.664;139.738;2023-05-29T08:00:21;22.70;99.90
9414;DHT22;4746;35.664;139.738;2023-05-29T08:02:50;22.70;99.90
9414;DHT22;4746;35.664;139.738;2023-05-29T08:05:18;22.60;99.90
9414;DHT22;4746;35.664;139.738;2023-05-29T08:07:45;22.60;99.90
9414;DHT22;4746;35.664;139.738;2023-05-29T08:10:14;22.60;99.90
9414;DHT22;4746;35.664;139.738;2023-05-29T08:12:42;22.60;99.90
9414;DHT22;4746;35.664;139.738;2023-05-29T08:15:10;22.60;99.90
9414;DHT22;4746;35.664;139.738;2023-05-29T08:17:38;22.60;99.90
9414;DHT22;4746;35.664;139.738;2023-05-29T08:20:06;22.50;99.90
9414;DHT22;4746;35.664;139.738;2023-05-29T08:22:36;22.50;99.90
9414;DHT22;4746;35.664;139.738;2023-05-29T08:25:04;22.50;99.90
9414;DHT22;4746;35.664;139.738;2023-05-29T08:27:31;22.50;99.90
9414;DHT22;4746;35.664;139.738;2023-05-29T08:29:59;22.40;99.90
9414;DHT22;4746;35.664;139.738;2023-05-29T08:32:27;22.40;99.90
9414;DHT22;4746;35.664;139.738;2023-05-29T08:34:55;22.40;99.90
9414;DHT22;4746;35.664;139.738;2023-05-29T08:37:23;22.40;99.90
9414;DHT22;4746;35.664;139.738;2023-05-29T08:39:50;22.40;99.90
9414;DHT22;4746;35.664;139.738;2023-05-29T08:42:29;22.40;99.90
9414;DHT22;4746;35.664;139.738;2023-05-29T08:45:03;22.40;99.90
9414;DHT22;4746;35.664;139.738;2023-05-29T08:47:33;22.40;99.90
9414;DHT22;4746;35.664;139.738;2023-05-29T08:50:01;22.40;99.90
9414;DHT22;4746;35.664;139.738;2023-05-29T08:52:34;22.40;99.90
9414;DHT22;4746;35.664;139.738;2023-05-29T08:55:02;22.40;99.90
9414;DHT22;4746;35.664;139.738;2023-05-29T08:57:34;22.40;99.90
9414;DHT22;4746;35.664;139.738;2023-05-29T09:00:11;22.40;99.90
9414;DHT22;4746;35.664;139.738;2023-05-29T09:02:40;22.40;99.90
9414;DHT22;4746;35.664;139.738;2023-05-29T09:05:10;22.40;99.90
9414;DHT22;4746;35.664;139.738;2023-05-29T09:07:39;22.30;99.90
9414;DHT22;4746;35.664;139.738;2023-05-29T09:10:09;22.30;99.90
9414;DHT22;4746;35.664;139.738;2023-05-29T09:12:37;22.40;99.90
9414;DHT22;4746;35.664;139.738;2023-05-29T09:15:26;22.30;99.90
9414;DHT22;4746;35.664;139.738;2023-05-29T09:17:57;22.30;99.90
9414;DHT22;4746;35.664;139.738;2023-05-29T09:20:26;22.30;99.90
9414;DHT22;4746;35.664;139.738;2023-05-29T09:22:57;22.30;99.90
9414;DHT22;4746;35.664;139.738;2023-05-29T09:25:29;22.30;99.90
9414;DHT22;4746;35.664;139.738;2023-05-29T09:28:03;22.30;99.90
9414;DHT22;4746;35.664;139.738;2023-05-29T09:30:42;22.30;99.90
9414;DHT22;4746;35.664;139.738;2023-05-29T09:33:12;22.30;99.90
9414;DHT22;4746;35.664;139.738;2023-05-29T09:35:43;22.40;99.90
9414;DHT22;4746;35.664;139.738;2023-05-29T09:38:14;22.40;99.90
9414;DHT22;4746;35.664;139.738;2023-05-29T09:40:43;22.40;99.90
9414;DHT22;4746;35.664;139.738;2023-05-29T09:43:19;22.40;99.90
9414;DHT22;4746;35.664;139.738;2023-05-29T09:45:47;22.40;99.90
9414;DHT22;4746;35.664;139.738;2023-05-29T09:48:18;22.40;99.90
9414;DHT22;4746;35.664;139.738;2023-05-29T09:50:50;22.40;99.90
9414;DHT22;4746;35.664;139.738;2023-05-29T09:53:21;22.40;99.90
9414;DHT22;4746;35.664;139.738;2023-05-29T09:55:54;22.40;99.90
9414;DHT22;4746;35.664;139.738;2023-05-29T09:58:25;22.40;99.90
9414;DHT22;4746;35.664;139.738;2023-05-29T10:00:53;22.30;99.90
9414;DHT22;4746;35.664;139.738;2023-05-29T10:03:41;22.30;99.90
9414;DHT22;4746;35.664;139.738;2023-05-29T10:06:11;22.30;99.90
9414;DHT22;4746;35.664;139.738;2023-05-29T10:08:46;22.30;99.90
9414;DHT22;4746;35.664;139.738;2023-05-29T10:11:21;22.20;99.90
9414;DHT22;4746;35.664;139.738;2023-05-29T10:13:54;22.20;99.90
9414;DHT22;4746;35.664;139.738;2023-05-29T10:16:24;22.10;99.90
9414;DHT22;4746;35.664;139.738;2023-05-29T10:18:55;22.10;99.90
9414;DHT22;4746;35.664;139.738;2023-05-29T10:21:27;22.10;99.90
9414;DHT22;4746;35.664;139.738;2023-05-29T10:23:57;22.10;99.90
9414;DHT22;4746;35.664;139.738;2023-05-29T10:26:25;22.00;99.90
9414;DHT22;4746;35.664;139.738;2023-05-29T10:29:05;22.00;99.90
9414;DHT22;4746;35.664;139.738;2023-05-29T10:37:57;22.00;99.90
9414;DHT22;4746;35.664;139.738;2023-05-29T10:40:36;21.90;99.90
9414;DHT22;4746;35.664;139.738;2023-05-29T10:43:04;21.90;99.90
9414;DHT22;4746;35.664;139.738;2023-05-29T10:50:47;21.80;99.90
9414;DHT22;4746;35.664;139.738;2023-05-29T10:53:30;21.70;99.90
9414;DHT22;4746;35.664;139.738;2023-05-29T10:56:01;21.60;99.90
9414;DHT22;4746;35.664;139.738;2023-05-29T10:58:30;21.60;99.90
9414;DHT22;4746;35.664;139.738;2023-05-29T11:00:58;21.50;99.90
9414;DHT22;4746;35.664;139.738;2023-05-29T11:03:30;21.50;99.90
9414;DHT22;4746;35.664;139.738;2023-05-29T11:06:08;21.40;99.90
9414;DHT22;4746;35.664;139.738;2023-05-29T11:08:56;21.40;99.90
9414;DHT22;4746;35.664;139.738;2023-05-29T11:11:33;21.40;99.90
9414;DHT22;4746;35.664;139.738;2023-05-29T11:14:08;21.40;99.90
9414;DHT22;4746;35.664;139.738;2023-05-29T11:16:36;21.30;99.90
9414;DHT22;4746;35.664;139.738;2023-05-29T11:19:08;21.30;99.90
9414;DHT22;4746;35.664;139.738;2023-05-29T11:24:24;21.30;99.90
9414;DHT22;4746;35.664;139.738;2023-05-29T11:26:56;21.30;99.90
9414;DHT22;4746;35.664;139.738;2023-05-29T11:29:32;21.30;99.90
9414;DHT22;4746;35.664;139.738;2023-05-29T11:34:40;21.30;99.90
9414;DHT22;4746;35.664;139.738;2023-05-29T11:37:11;21.30;99.90
9414;DHT22;4746;35.664;139.738;2023-05-29T11:39:39;21.20;99.90
9414;DHT22;4746;35.664;139.738;2023-05-29T11:42:08;21.20;99.90
9414;DHT22;4746;35.664;139.738;2023-05-29T11:44:36;21.20;99.90
9414;DHT22;4746;35.664;139.738;2023-05-29T11:47:07;21.10;99.90
9414;DHT22;4746;35.664;139.738;2023-05-29T11:49:36;21.10;99.90
9414;DHT22;4746;35.664;139.738;2023-05-29T11:54:40;21.10;99.90
9414;DHT22;4746;35.664;139.738;2023-05-29T11:57:22;21.00;99.90
9414;DHT22;4746;35.664;139.738;2023-05-29T11:59:52;21.00;99.90
9414;DHT22;4746;35.664;139.738;2023-05-29T12:02:25;20.90;99.90
9414;DHT22;4746;35.664;139.738;2023-05-29T12:05:04;20.80;99.90
9414;DHT22;4746;35.664;139.738;2023-05-29T12:07:35;20.80;99.90
9414;DHT22;4746;35.664;139.738;2023-05-29T12:10:13;20.70;99.90
9414;DHT22;4746;35.664;139.738;2023-05-29T12:12:52;20.70;99.90
9414;DHT22;4746;35.664;139.738;2023-05-29T12:15:21;20.60;99.90
9414;DHT22;4746;35.664;139.738;2023-05-29T12:17:51;20.60;99.90
9414;DHT22;4746;35.664;139.738;2023-05-29T12:20:23;20.50;99.90
9414;DHT22;4746;35.664;139.738;2023-05-29T12:23:01;20.50;99.90
9414;DHT22;4746;35.664;139.738;2023-05-29T12:25:29;20.40;99.90
9414;DHT22;4746;35.664;139.738;2023-05-29T12:27:59;20.40;99.90
9414;DHT22;4746;35.664;139.738;2023-05-29T12:30:29;20.40;99.90
9414;DHT22;4746;35.664;139.738;2023-05-29T12:32:57;20.40;99.90
9414;DHT22;4746;35.664;139.738;2023-05-29T12:35:27;20.30;99.90
9414;DHT22;4746;35.664;139.738;2023-05-29T12:40:32;20.30;99.90
9414;DHT22;4746;35.664;139.738;2023-05-29T12:43:05;20.30;99.90
9414;DHT22;4746;35.664;139.738;2023-05-29T12:45:36;20.30;99.90
9414;DHT22;4746;35.664;139.738;2023-05-29T12:48:05;20.30;99.90
9414;DHT22;4746;35.664;139.738;2023-05-29T12:50:35;20.30;99.90
9414;DHT22;4746;35.664;139.738;2023-05-29T12:53:06;20.20;99.90
9414;DHT22;4746;35.664;139.738;2023-05-29T12:55:40;20.20;99.90
9414;DHT22;4746;35.664;139.738;2023-05-29T12:58:13;20.20;99.90
9414;DHT22;4746;35.664;139.738;2023-05-29T13:00:46;20.20;99.90
9414;DHT22;4746;35.664;139.738;2023-05-29T13:03:14;20.20;99.90
9414;DHT22;4746;35.664;139.738;2023-05-29T13:05:42;20.30;99.90
9414;DHT22;4746;35.664;139.738;2023-05-29T13:08:09;20.30;99.90
9414;DHT22;4746;35.664;139.738;2023-05-29T13:10:37;20.30;99.90
9414;DHT22;4746;35.664;139.738;2023-05-29T13:13:04;20.30;99.90
9414;DHT22;4746;35.664;139.738;2023-05-29T13:15:32;20.30;99.90
9414;DHT22;4746;35.664;139.738;2023-05-29T13:18:00;20.30;99.90
9414;DHT22;4746;35.664;139.738;2023-05-29T13:20:28;20.30;99.90
9414;DHT22;4746;35.664;139.738;2023-05-29T13:22:56;20.30;99.90
9414;DHT22;4746;35.664;139.738;2023-05-29T13:25:24;20.30;99.90
9414;DHT22;4746;35.664;139.738;2023-05-29T13:27:52;20.30;99.90
9414;DHT22;4746;35.664;139.738;2023-05-29T13:30:20;20.30;99.90
9414;DHT22;4746;35.664;139.738;2023-05-29T13:32:49;20.40;99.90
9414;DHT22;4746;35.664;139.738;2023-05-29T13:35:20;20.30;99.90
9414;DHT22;4746;35.664;139.738;2023-05-29T13:37:49;20.30;99.90
9414;DHT22;4746;35.664;139.738;2023-05-29T13:40:17;20.20;99.90
9414;DHT22;4746;35.664;139.738;2023-05-29T13:42:44;20.20;99.90
9414;DHT22;4746;35.664;139.738;2023-05-29T13:45:12;20.10;99.90
9414;DHT22;4746;35.664;139.738;2023-05-29T13:47:40;20.20;99.90
9414;DHT22;4746;35.664;139.738;2023-05-29T13:50:08;20.20;99.90
9414;DHT22;4746;35.664;139.738;2023-05-29T13:52:37;20.20;99.90
9414;DHT22;4746;35.664;139.738;2023-05-29T13:55:05;20.20;99.90
9414;DHT22;4746;35.664;139.738;2023-05-29T13:57:35;20.20;99.90
9414;DHT22;4746;35.664;139.738;2023-05-29T14:00:04;20.20;99.90
9414;DHT22;4746;35.664;139.738;2023-05-29T14:02:32;20.20;99.90
9414;DHT22;4746;35.664;139.738;2023-05-29T14:04:59;20.20;99.90
9414;DHT22;4746;35.664;139.738;2023-05-29T14:07:27;20.30;99.90
9414;DHT22;4746;35.664;139.738;2023-05-29T14:09:58;20.30;99.90
9414;DHT22;4746;35.664;139.738;2023-05-29T14:12:26;20.30;99.90
9414;DHT22;4746;35.664;139.738;2023-05-29T14:14:53;20.30;99.90
9414;DHT22;4746;35.664;139.738;2023-05-29T14:17:21;20.30;99.90
9414;DHT22;4746;35.664;139.738;2023-05-29T14:19:48;20.30;99.90
9414;DHT22;4746;35.664;139.738;2023-05-29T14:22:16;20.40;99.90
9414;DHT22;4746;35.664;139.738;2023-05-29T14:24:43;20.40;99.90
9414;DHT22;4746;35.664;139.738;2023-05-29T14:27:11;20.40;99.90
9414;DHT22;4746;35.664;139.738;2023-05-29T14:29:38;20.40;99.90
9414;DHT22;4746;35.664;139.738;2023-05-29T14:32:06;20.40;99.90
9414;DHT22;4746;35.664;139.738;2023-05-29T14:34:33;20.40;99.90
9414;DHT22;4746;35.664;139.738;2023-05-29T14:37:01;20.40;99.90
9414;DHT22;4746;35.664;139.738;2023-05-29T14:39:28;20.40;99.90
9414;DHT22;4746;35.664;139.738;2023-05-29T14:41:56;20.50;99.90
9414;DHT22;4746;35.664;139.738;2023-05-29T14:44:23;20.50;99.90
9414;DHT22;4746;35.664;139.738;2023-05-29T14:46:51;20.50;99.90
9414;DHT22;4746;35.664;139.738;2023-05-29T14:49:19;20.60;99.90
9414;DHT22;4746;35.664;139.738;2023-05-29T14:51:47;20.60;99.90
9414;DHT22;4746;35.664;139.738;2023-05-29T14:54:15;20.60;99.90
9414;DHT22;4746;35.664;139.738;2023-05-29T14:56:42;20.60;99.90
9414;DHT22;4746;35.664;139.738;2023-05-29T14:59:10;20.60;99.90
9414;DHT22;4746;35.664;139.738;2023-05-29T15:01:37;20.60;99.90
9414;DHT22;4746;35.664;139.738;2023-05-29T15:04:05;20.70;99.90
9414;DHT22;4746;35.664;139.738;2023-05-29T15:06:32;20.60;99.90
9414;DHT22;4746;35.664;139.738;2023-05-29T15:09:00;20.60;99.90
9414;DHT22;4746;35.664;139.738;2023-05-29T15:11:30;20.60;99.90
9414;DHT22;4746;35.664;139.738;2023-05-29T15:13:57;20.70;99.90
9414;DHT22;4746;35.664;139.738;2023-05-29T15:16:25;20.60;99.90
9414;DHT22;4746;35.664;139.738;2023-05-29T15:18:52;20.60;99.90
9414;DHT22;4746;35.664;139.738;2023-05-29T15:21:20;20.70;99.90
9414;DHT22;4746;35.664;139.738;2023-05-29T15:23:47;20.70;99.90
9414;DHT22;4746;35.664;139.738;2023-05-29T15:26:15;20.70;99.90
9414;DHT22;4746;35.664;139.738;2023-05-29T15:28:42;20.70;99.90
9414;DHT22;4746;35.664;139.738;2023-05-29T15:31:10;20.70;99.90
9414;DHT22;4746;35.664;139.738;2023-05-29T15:33:37;20.70;99.90
9414;DHT22;4746;35.664;139.738;2023-05-29T15:36:06;20.70;99.90
9414;DHT22;4746;35.664;139.738;2023-05-29T15:38:34;20.60;99.90
9414;DHT22;4746;35.664;139.738;2023-05-29T15:41:01;20.60;99.90
9414;DHT22;4746;35.664;139.738;2023-05-29T15:43:30;20.60;99.90
9414;DHT22;4746;35.664;139.738;2023-05-29T15:45:58;20.60;99.90
9414;DHT22;4746;35.664;139.738;2023-05-29T15:48:26;20.60;99.90
9414;DHT22;4746;35.664;139.738;2023-05-29T15:50:53;20.60;99.90
9414;DHT22;4746;35.664;139.738;2023-05-29T15:53:21;20.70;99.90
9414;DHT22;4746;35.664;139.738;2023-05-29T15:55:49;20.70;99.90
9414;DHT22;4746;35.664;139.738;2023-05-29T15:58:16;20.70;99.90
9414;DHT22;4746;35.664;139.738;2023-05-29T16:00:44;20.60;99.90
9414;DHT22;4746;35.664;139.738;2023-05-29T16:03:11;20.60;99.90
9414;DHT22;4746;35.664;139.738;2023-05-29T16:05:39;20.60;99.90